createdAt,value
2022-10-13T00:01:45.814Z,101858.74
2022-10-13T00:04:15.609Z,101855.73
2022-10-13T00:06:44.841Z,101852.22
2022-10-13T00:09:14.731Z,101845.11
2022-10-13T00:11:44.021Z,101843.80
2022-10-13T00:14:13.319Z,101847.03
2022-10-13T00:16:42.569Z,101842.98
2022-10-13T00:19:15.055Z,101837.13
2022-10-13T00:21:43.083Z,101840.66
2022-10-13T00:24:12.713Z,101844.33
2022-10-13T00:26:42.213Z,101843.59
2022-10-13T00:29:13.207Z,101838.23
2022-10-13T00:31:42.656Z,101840.05
2022-10-13T00:34:11.918Z,101835.75
2022-10-13T00:36:41.218Z,101831.53
2022-10-13T00:39:10.628Z,101841.11
2022-10-13T00:41:39.975Z,101839.00
2022-10-13T00:44:30.692Z,101834.48
2022-10-13T00:47:00.211Z,101829.16
2022-10-13T00:49:31.220Z,101838.61
2022-10-13T00:52:00.799Z,101835.35
2022-10-13T00:54:30.618Z,101831.86
2022-10-13T00:56:59.846Z,101836.60
2022-10-13T00:59:29.783Z,101835.45
2022-10-13T01:02:00.197Z,101834.89
2022-10-13T01:04:42.160Z,101842.48
2022-10-13T01:07:11.805Z,101841.72
2022-10-13T01:09:42.618Z,101846.33
2022-10-13T01:12:44.235Z,101840.31
2022-10-13T01:15:42.736Z,101842.45
2022-10-13T01:18:21.005Z,101838.23
2022-10-13T01:21:03.160Z,101844.77
2022-10-13T01:23:47.979Z,101839.41
2022-10-13T01:26:32.464Z,101839.94
2022-10-13T01:29:27.259Z,101839.95
2022-10-13T01:32:14.633Z,101838.41
2022-10-13T01:34:56.210Z,101833.36
2022-10-13T01:37:36.142Z,101831.73
2022-10-13T01:40:17.683Z,101828.20
2022-10-13T01:42:59.124Z,101824.08
2022-10-13T01:45:31.689Z,101830.03
2022-10-13T01:48:00.468Z,101829.59
2022-10-13T01:50:29.959Z,101826.08
2022-10-13T01:53:02.241Z,101823.45
2022-10-13T01:55:32.144Z,101808.92
2022-10-13T01:58:01.450Z,101812.50
2022-10-13T02:00:32.835Z,101810.43
2022-10-13T02:03:17.507Z,101804.16
2022-10-13T02:05:49.674Z,101808.12
2022-10-13T02:08:24.617Z,101796.98
2022-10-13T02:10:59.827Z,101794.36
2022-10-13T02:13:31.657Z,101787.27
2022-10-13T02:16:02.580Z,101782.03
2022-10-13T02:18:36.216Z,101772.93
2022-10-13T02:21:07.452Z,101773.19
2022-10-13T02:23:37.449Z,101771.30
2022-10-13T02:26:07.006Z,101770.02
2022-10-13T02:28:38.345Z,101760.02
2022-10-13T02:31:10.365Z,101763.00
2022-10-13T02:33:39.734Z,101765.78
2022-10-13T02:36:09.216Z,101766.04
2022-10-13T02:38:38.754Z,101771.78
2022-10-13T02:41:08.104Z,101765.57
2022-10-13T02:43:38.770Z,101763.47
2022-10-13T02:46:07.997Z,101771.42
2022-10-13T02:48:37.580Z,101772.93
2022-10-13T02:51:07.127Z,101775.87
2022-10-13T02:53:36.549Z,101775.07
2022-10-13T02:56:06.448Z,101774.81
2022-10-13T02:58:39.725Z,101776.21
2022-10-13T03:01:10.734Z,101766.58
2022-10-13T03:03:40.598Z,101757.66
2022-10-13T03:06:10.015Z,101761.72
2022-10-13T03:08:40.676Z,101752.61
2022-10-13T03:11:09.952Z,101755.05
2022-10-13T03:13:39.371Z,101753.69
2022-10-13T03:16:09.394Z,101756.70
2022-10-13T03:18:38.821Z,101759.09
2022-10-13T03:21:08.204Z,101754.02
2022-10-13T03:23:38.730Z,101750.77
2022-10-13T03:26:08.262Z,101738.30
2022-10-13T03:28:37.697Z,101741.87
2022-10-13T03:31:09.470Z,101733.52
2022-10-13T03:33:38.743Z,101735.94
2022-10-13T03:36:08.327Z,101713.05
2022-10-13T03:38:37.800Z,101703.29
2022-10-13T03:41:08.882Z,101697.13
2022-10-13T03:43:38.342Z,101707.11
2022-10-13T03:46:08.812Z,101688.11
2022-10-13T03:48:38.521Z,101687.34
2022-10-13T03:51:12.924Z,101707.86
2022-10-13T03:53:43.947Z,101711.12
2022-10-13T03:56:18.597Z,101723.53
2022-10-13T03:58:55.351Z,101719.26
2022-10-13T04:01:26.912Z,101723.91
2022-10-13T04:03:57.333Z,101719.61
2022-10-13T04:06:27.406Z,101719.27
2022-10-13T04:08:56.902Z,101719.00
2022-10-13T04:11:26.325Z,101713.52
2022-10-13T04:13:59.941Z,101703.28
2022-10-13T04:16:31.284Z,101698.58
2022-10-13T04:19:04.503Z,101704.45
2022-10-13T04:21:35.073Z,101694.19
2022-10-13T04:24:04.941Z,101695.75
2022-10-13T04:26:37.966Z,101704.86
2022-10-13T04:29:12.095Z,101713.81
2022-10-13T04:31:43.897Z,101728.86
2022-10-13T04:34:13.446Z,101727.23
2022-10-13T04:36:43.277Z,101715.35
2022-10-13T04:39:12.524Z,101714.02
2022-10-13T04:41:41.949Z,101709.83
2022-10-13T04:44:11.446Z,101715.97
2022-10-13T04:46:40.689Z,101714.36
2022-10-13T04:49:10.148Z,101711.59
2022-10-13T04:51:40.099Z,101704.23
2022-10-13T04:54:10.097Z,101713.35
2022-10-13T04:56:39.490Z,101703.96
2022-10-13T04:59:08.871Z,101708.69
2022-10-13T05:01:38.431Z,101705.66
2022-10-13T05:04:10.257Z,101711.11
2022-10-13T05:07:05.277Z,101709.22
2022-10-13T05:09:16.566Z,101706.17
2022-10-13T05:11:45.815Z,101707.82
2022-10-13T05:14:15.321Z,101701.27
2022-10-13T05:16:44.689Z,101699.30
2022-10-13T05:19:15.813Z,101702.25
2022-10-13T05:21:45.547Z,101696.59
2022-10-13T05:24:16.268Z,101703.61
2022-10-13T05:26:47.385Z,101702.25
2022-10-13T05:29:18.443Z,101697.59
2022-10-13T05:31:48.478Z,101692.39
2022-10-13T05:34:17.934Z,101693.41
2022-10-13T05:36:47.585Z,101679.37
2022-10-13T05:39:16.891Z,101684.42
2022-10-13T05:41:46.261Z,101682.52
2022-10-13T05:44:17.631Z,101677.40
2022-10-13T05:46:48.775Z,101671.56
2022-10-13T05:49:18.287Z,101663.23
2022-10-13T05:51:50.119Z,101661.61
2022-10-13T05:54:31.475Z,101660.87
2022-10-13T05:57:16.063Z,101665.47
2022-10-13T05:59:53.844Z,101651.69
2022-10-13T06:02:25.210Z,101668.70
2022-10-13T06:04:56.379Z,101673.33
2022-10-13T06:07:26.231Z,101671.98
2022-10-13T06:09:55.474Z,101670.42
2022-10-13T06:12:24.698Z,101667.35
2022-10-13T06:14:54.154Z,101664.59
2022-10-13T06:17:24.116Z,101668.25
2022-10-13T06:19:53.378Z,101658.89
2022-10-13T06:22:23.162Z,101666.32
2022-10-13T06:24:52.546Z,101664.36
2022-10-13T06:27:21.789Z,101665.72
2022-10-13T06:29:51.486Z,101665.94
2022-10-13T06:32:21.307Z,101673.74
2022-10-13T06:34:51.430Z,101672.66
2022-10-13T06:37:26.224Z,101672.38
2022-10-13T06:39:51.749Z,101665.58
2022-10-13T06:42:21.484Z,101667.19
2022-10-13T06:44:52.745Z,101666.04
2022-10-13T06:47:22.440Z,101664.47
2022-10-13T06:49:51.859Z,101661.19
2022-10-13T06:52:21.734Z,101662.33
2022-10-13T06:54:51.279Z,101657.48
2022-10-13T06:57:20.499Z,101656.94
2022-10-13T06:59:50.187Z,101655.34
2022-10-13T07:02:20.072Z,101651.83
2022-10-13T07:04:49.728Z,101654.27
2022-10-13T07:07:19.388Z,101654.58
2022-10-13T07:09:49.608Z,101657.30
2022-10-13T07:12:19.569Z,101659.45
2022-10-13T07:14:49.480Z,101651.95
2022-10-13T07:17:19.198Z,101659.25
2022-10-13T07:19:49.204Z,101648.21
2022-10-13T07:22:18.600Z,101653.13
2022-10-13T07:24:48.114Z,101636.23
2022-10-13T07:27:17.363Z,101640.02
2022-10-13T07:29:46.934Z,101642.52
2022-10-13T07:32:16.437Z,101641.46
2022-10-13T07:34:46.035Z,101643.14
2022-10-13T07:37:15.652Z,101644.84
2022-10-13T07:39:45.045Z,101643.50
2022-10-13T07:42:14.278Z,101641.11
2022-10-13T07:44:43.648Z,101650.83
2022-10-13T07:47:12.935Z,101647.91
2022-10-13T07:49:42.964Z,101653.00
2022-10-13T07:52:12.187Z,101648.48
2022-10-13T07:54:41.515Z,101653.39
2022-10-13T07:57:10.904Z,101651.83
2022-10-13T07:59:40.306Z,101649.13
2022-10-13T08:02:11.480Z,101650.22
2022-10-13T08:04:41.160Z,101654.00
2022-10-13T08:07:11.425Z,101655.94
2022-10-13T08:09:40.870Z,101654.07
2022-10-13T08:12:10.098Z,101654.87
2022-10-13T08:14:39.623Z,101654.39
2022-10-13T08:17:09.845Z,101656.30
2022-10-13T08:19:39.086Z,101651.23
2022-10-13T08:22:10.011Z,101646.43
2022-10-13T08:24:40.544Z,101651.88
2022-10-13T08:27:12.044Z,101647.62
2022-10-13T08:29:43.699Z,101652.81
2022-10-13T08:32:13.008Z,101654.70
2022-10-13T08:34:42.465Z,101657.23
2022-10-13T08:37:16.796Z,101655.67
2022-10-13T08:39:46.827Z,101656.43
2022-10-13T08:42:22.599Z,101648.39
2022-10-13T08:45:36.136Z,101653.79
2022-10-13T08:47:41.097Z,101657.94
2022-10-13T08:50:14.983Z,101653.12
2022-10-13T08:53:01.183Z,101655.43
2022-10-13T08:55:47.835Z,101654.24
2022-10-13T08:58:27.467Z,101651.53
2022-10-13T09:01:21.542Z,101645.91
2022-10-13T09:03:59.994Z,101641.86
2022-10-13T09:06:35.113Z,101645.44
2022-10-13T09:09:08.816Z,101644.86
2022-10-13T09:11:41.289Z,101638.11
2022-10-13T09:14:13.674Z,101644.13
2022-10-13T09:16:45.274Z,101637.91
2022-10-13T09:19:18.669Z,101635.52
2022-10-13T09:21:48.974Z,101636.05
2022-10-13T09:24:21.440Z,101636.69
2022-10-13T09:26:53.034Z,101637.44
2022-10-13T09:29:25.480Z,101638.34
2022-10-13T09:32:12.914Z,101636.21
2022-10-13T09:34:42.689Z,101634.29
2022-10-13T09:37:20.859Z,101636.78
2022-10-13T09:40:10.148Z,101637.32
2022-10-13T09:42:39.758Z,101639.73
2022-10-13T09:45:16.755Z,101629.18
2022-10-13T09:48:04.419Z,101639.64
2022-10-13T09:50:35.728Z,101634.80
2022-10-13T09:53:14.452Z,101628.61
2022-10-13T09:55:45.437Z,101624.93
2022-10-13T09:58:25.049Z,101629.02
2022-10-13T10:00:55.577Z,101625.01
2022-10-13T10:03:36.728Z,101625.82
2022-10-13T10:06:08.063Z,101626.87
2022-10-13T10:09:07.620Z,101622.47
2022-10-13T10:11:30.376Z,101625.17
2022-10-13T10:14:01.368Z,101623.02
2022-10-13T10:16:36.753Z,101619.55
2022-10-13T10:19:18.263Z,101624.41
2022-10-13T10:22:07.319Z,101616.52
2022-10-13T10:24:55.120Z,101612.47
2022-10-13T10:27:40.014Z,101612.16
2022-10-13T10:30:16.978Z,101618.23
2022-10-13T10:33:08.261Z,101619.35
2022-10-13T10:35:49.713Z,101622.33
2022-10-13T10:38:33.741Z,101614.33
2022-10-13T10:41:14.690Z,101609.17
2022-10-13T10:44:03.150Z,101617.03
2022-10-13T10:46:37.672Z,101614.06
2022-10-13T10:49:16.150Z,101609.72
2022-10-13T10:51:47.758Z,101609.41
2022-10-13T10:54:34.986Z,101610.17
2022-10-13T10:57:13.643Z,101610.72
2022-10-13T10:59:51.762Z,101604.20
2022-10-13T11:02:36.234Z,101602.77
2022-10-13T11:05:06.626Z,101598.52
2022-10-13T11:07:43.066Z,101594.91
2022-10-13T11:10:21.714Z,101593.89
2022-10-13T11:12:57.283Z,101593.37
2022-10-13T11:15:28.675Z,101587.13
2022-10-13T11:17:58.511Z,101592.02
2022-10-13T11:20:36.969Z,101588.54
2022-10-13T11:23:15.030Z,101579.64
2022-10-13T11:25:45.660Z,101580.19
2022-10-13T11:28:27.533Z,101578.02
2022-10-13T11:30:58.469Z,101577.18
2022-10-13T11:33:43.044Z,101572.64
2022-10-13T11:36:41.430Z,101569.66
2022-10-13T11:39:28.540Z,101569.14
2022-10-13T11:42:19.723Z,101565.61
2022-10-13T11:45:00.886Z,101565.61
2022-10-13T11:48:05.323Z,101562.07
2022-10-13T11:50:38.120Z,101558.30
2022-10-13T11:53:24.810Z,101555.31
2022-10-13T11:55:59.743Z,101553.19
2022-10-13T11:58:34.226Z,101558.33
2022-10-13T12:01:15.118Z,101549.71
2022-10-13T12:03:46.514Z,101551.63
2022-10-13T12:06:34.039Z,101549.21
2022-10-13T12:09:06.323Z,101547.27
2022-10-13T12:11:37.711Z,101542.16
2022-10-13T12:14:10.000Z,101541.09
2022-10-13T12:16:39.424Z,101543.52
2022-10-13T12:19:11.064Z,101541.11
2022-10-13T12:21:42.179Z,101547.05
2022-10-13T12:24:13.105Z,101547.07
2022-10-13T12:26:42.620Z,101544.11
2022-10-13T12:29:14.765Z,101535.98
2022-10-13T12:31:49.706Z,101537.09
2022-10-13T12:34:27.664Z,101536.02
2022-10-13T12:37:00.164Z,101537.14
2022-10-13T12:39:34.205Z,101534.70
2022-10-13T12:42:04.697Z,101532.27
2022-10-13T12:44:36.071Z,101536.06
2022-10-13T12:47:05.589Z,101531.17
2022-10-13T12:49:39.089Z,101532.55
2022-10-13T12:52:11.726Z,101531.47
2022-10-13T12:54:40.930Z,101533.31
2022-10-13T12:57:25.978Z,101535.45
2022-10-13T12:59:55.451Z,101530.57
2022-10-13T13:02:27.492Z,101525.09
2022-10-13T13:04:56.818Z,101522.11
2022-10-13T13:07:37.429Z,101521.03
2022-10-13T13:10:15.663Z,101518.84
2022-10-13T13:12:45.258Z,101520.22
2022-10-13T13:15:21.392Z,101520.53
2022-10-13T13:17:58.619Z,101521.37
2022-10-13T13:20:29.969Z,101519.73
2022-10-13T13:22:59.658Z,101520.28
2022-10-13T13:25:29.253Z,101517.59
2022-10-13T13:27:58.879Z,101514.33
2022-10-13T13:30:28.297Z,101509.73
2022-10-13T13:32:57.520Z,101514.05
2022-10-13T13:35:27.087Z,101518.41
2022-10-13T13:37:56.329Z,101513.80
2022-10-13T13:40:28.601Z,101517.31
2022-10-13T13:42:57.889Z,101517.83
2022-10-13T13:45:28.841Z,101517.58
2022-10-13T13:48:00.850Z,101516.23
2022-10-13T13:50:35.496Z,101507.83
2022-10-13T13:53:05.151Z,101510.83
2022-10-13T13:55:34.622Z,101517.58
2022-10-13T13:58:05.034Z,101509.47
2022-10-13T14:00:34.292Z,101512.44
2022-10-13T14:03:03.572Z,101507.84
2022-10-13T14:05:33.145Z,101505.67
2022-10-13T14:08:02.368Z,101501.09
2022-10-13T14:10:31.693Z,101501.10
2022-10-13T14:13:01.020Z,101502.18
2022-10-13T14:15:30.395Z,101494.59
2022-10-13T14:17:59.656Z,101503.80
2022-10-13T14:20:29.000Z,101498.92
2022-10-13T14:22:58.365Z,101500.80
2022-10-13T14:25:27.843Z,101490.77
2022-10-13T14:27:57.228Z,101496.69
2022-10-13T14:30:26.702Z,101483.69
2022-10-13T14:32:56.145Z,101485.58
2022-10-13T14:35:27.260Z,101488.27
2022-10-13T14:37:56.538Z,101481.78
2022-10-13T14:40:25.783Z,101484.20
2022-10-13T14:42:55.197Z,101485.27
2022-10-13T14:45:24.451Z,101484.43
2022-10-13T14:47:54.014Z,101483.89
2022-10-13T14:50:23.331Z,101473.10
2022-10-13T14:52:54.286Z,101468.53
2022-10-13T14:55:24.850Z,101462.84
2022-10-13T14:57:54.124Z,101461.78
2022-10-13T15:00:23.482Z,101465.31
2022-10-13T15:02:55.690Z,101471.02
2022-10-13T15:05:26.680Z,101460.48
2022-10-13T15:07:55.935Z,101470.74
2022-10-13T15:10:25.283Z,101470.17
2022-10-13T15:12:54.667Z,101465.58
2022-10-13T15:15:24.009Z,101464.75
2022-10-13T15:17:55.167Z,101469.38
2022-10-13T15:20:24.515Z,101462.06
2022-10-13T15:22:54.330Z,101465.03
2022-10-13T15:25:23.679Z,101462.60
2022-10-13T15:27:52.924Z,101461.52
2022-10-13T15:30:22.263Z,101462.06
2022-10-13T15:32:52.561Z,101464.50
2022-10-13T15:35:21.800Z,101459.35
2022-10-13T15:37:51.192Z,101466.67
2022-10-13T15:40:20.560Z,101460.43
2022-10-13T15:42:49.798Z,101460.43
2022-10-13T15:45:19.193Z,101456.64
2022-10-13T15:47:48.709Z,101462.06
2022-10-13T15:50:18.016Z,101461.80
2022-10-13T15:52:47.474Z,101454.22
2022-10-13T15:55:17.049Z,101454.20
2022-10-13T15:57:46.635Z,101458.27
2022-10-13T16:00:17.313Z,101455.83
2022-10-13T16:02:48.183Z,101456.64
2022-10-13T16:05:17.725Z,101457.71
2022-10-13T16:07:47.655Z,101456.91
2022-10-13T16:10:17.461Z,101458.52
2022-10-13T16:12:49.597Z,101459.33
2022-10-13T16:15:19.023Z,101463.92
2022-10-13T16:17:48.306Z,101466.09
2022-10-13T16:20:17.738Z,101461.23
2022-10-13T16:22:47.253Z,101462.30
2022-10-13T16:25:17.073Z,101463.09
2022-10-13T16:27:46.585Z,101465.28
2022-10-13T16:30:16.160Z,101471.75
2022-10-13T16:32:45.416Z,101467.96
2022-10-13T16:35:14.726Z,101469.30
2022-10-13T16:37:43.967Z,101471.44
2022-10-13T16:40:13.318Z,101470.36
2022-10-13T16:42:43.356Z,101475.52
2022-10-13T16:45:13.277Z,101476.84
2022-10-13T16:47:42.511Z,101485.22
2022-10-13T16:50:12.123Z,101485.77
2022-10-13T16:52:41.553Z,101493.58
2022-10-13T16:55:10.926Z,101498.18
2022-10-13T16:57:40.235Z,101496.75
2022-10-13T17:00:10.227Z,101495.02
2022-10-13T17:02:39.492Z,101499.33
2022-10-13T17:05:08.902Z,101500.95
2022-10-13T17:07:38.299Z,101506.36
2022-10-13T17:10:08.532Z,101507.41
2022-10-13T17:12:37.784Z,101513.62
2022-10-13T17:15:07.915Z,101516.02
2022-10-13T17:17:37.263Z,101516.52
2022-10-13T17:20:07.087Z,101516.21
2022-10-13T17:22:37.890Z,101518.06
2022-10-13T17:25:07.897Z,101521.03
2022-10-13T17:27:37.749Z,101514.79
2022-10-13T17:30:07.689Z,101516.95
2022-10-13T17:32:39.937Z,101519.88
2022-10-13T17:35:11.217Z,101521.50
2022-10-13T17:37:40.589Z,101530.36
2022-10-13T17:40:11.942Z,101536.61
2022-10-13T17:42:41.334Z,101530.32
2022-10-13T17:45:11.295Z,101536.25
2022-10-13T17:47:40.758Z,101537.56
2022-10-13T17:50:10.451Z,101531.58
2022-10-13T17:52:39.688Z,101536.13
2022-10-13T17:55:09.504Z,101544.20
2022-10-13T17:57:38.865Z,101543.88
2022-10-13T18:00:09.461Z,101544.66
2022-10-13T18:02:40.963Z,101541.45
2022-10-13T18:05:10.485Z,101541.63
2022-10-13T18:07:39.728Z,101546.75
2022-10-13T18:10:10.939Z,101551.30
2022-10-13T18:12:40.357Z,101555.66
2022-10-13T18:15:09.957Z,101550.48
2022-10-13T18:17:39.285Z,101557.53
2022-10-13T18:20:09.018Z,101561.31
2022-10-13T18:22:39.621Z,101556.73
2022-10-13T18:25:09.344Z,101559.17
2022-10-13T18:27:38.617Z,101561.64
2022-10-13T18:30:09.957Z,101564.12
2022-10-13T18:32:39.553Z,101557.65
2022-10-13T18:35:10.791Z,101562.51
2022-10-13T18:37:40.225Z,101564.67
2022-10-13T18:40:10.209Z,101565.47
2022-10-13T18:42:43.343Z,101569.75
2022-10-13T18:45:11.213Z,101564.56
2022-10-13T18:47:40.718Z,101568.34
2022-10-13T18:50:10.507Z,101573.73
2022-10-13T18:52:39.778Z,101573.45
2022-10-13T18:55:09.252Z,101571.53
2022-10-13T18:57:38.531Z,101564.77
2022-10-13T19:00:10.415Z,101569.30
2022-10-13T19:02:39.645Z,101564.34
2022-10-13T19:05:09.558Z,101568.31
2022-10-13T19:07:39.310Z,101568.23
2022-10-13T19:10:09.505Z,101570.89
2022-10-13T19:12:38.809Z,101567.05
2022-10-13T19:15:09.163Z,101568.87
2022-10-13T19:17:38.568Z,101559.81
2022-10-13T19:20:08.650Z,101558.14
2022-10-13T19:22:38.052Z,101564.82
2022-10-13T19:25:08.895Z,101566.88
2022-10-13T19:27:38.219Z,101564.17
2022-10-13T19:30:08.606Z,101567.36
2022-10-13T19:32:40.065Z,101567.36
2022-10-13T19:35:09.663Z,101564.41
2022-10-13T19:37:40.032Z,101572.26
2022-10-13T19:40:09.630Z,101572.00
2022-10-13T19:42:39.027Z,101569.86
2022-10-13T19:45:09.723Z,101578.56
2022-10-13T19:47:39.130Z,101581.27
2022-10-13T19:50:08.674Z,101575.34
2022-10-13T19:52:38.138Z,101567.80
2022-10-13T19:55:08.015Z,101565.28
2022-10-13T19:57:37.730Z,101572.27
2022-10-13T20:00:07.946Z,101572.81
2022-10-13T20:02:39.099Z,101576.05
2022-10-13T20:05:09.138Z,101579.53
2022-10-13T20:07:38.756Z,101583.27
2022-10-13T20:10:08.187Z,101580.28
2022-10-13T20:12:39.329Z,101584.58
2022-10-13T20:15:09.911Z,101581.89
2022-10-13T20:17:41.304Z,101583.78
2022-10-13T20:20:11.480Z,101582.44
2022-10-13T20:22:40.967Z,101577.88
2022-10-13T20:25:11.268Z,101588.17
2022-10-13T20:27:40.719Z,101588.19
2022-10-13T20:30:11.346Z,101585.85
2022-10-13T20:32:40.880Z,101587.25
2022-10-13T20:35:10.446Z,101587.25
2022-10-13T20:37:39.835Z,101591.03
2022-10-13T20:40:10.094Z,101594.81
2022-10-13T20:42:39.469Z,101587.75
2022-10-13T20:45:10.196Z,101591.86
2022-10-13T20:47:41.326Z,101595.14
2022-10-13T20:50:11.234Z,101595.14
2022-10-13T20:52:40.643Z,101594.88
2022-10-13T20:55:10.583Z,101591.62
2022-10-13T20:57:40.132Z,101592.45
2022-10-13T21:00:10.680Z,101590.56
2022-10-13T21:02:40.101Z,101590.30
2022-10-13T21:05:14.046Z,101588.95
2022-10-13T21:07:43.439Z,101587.66
2022-10-13T21:10:13.098Z,101589.23
2022-10-13T21:12:42.526Z,101592.46
2022-10-13T21:15:12.345Z,101586.84
2022-10-13T21:17:43.853Z,101592.78
2022-10-13T21:20:13.168Z,101594.13
2022-10-13T21:22:43.173Z,101585.23
2022-10-13T21:25:12.869Z,101579.03
2022-10-13T21:27:42.250Z,101570.66
2022-10-13T21:30:12.125Z,101567.17
2022-10-13T21:32:41.815Z,101564.20
2022-10-13T21:35:11.495Z,101566.84
2022-10-13T21:37:40.747Z,101569.72
2022-10-13T21:40:11.099Z,101570.93
2022-10-13T21:42:40.405Z,101565.72
2022-10-13T21:45:10.700Z,101570.24
2022-10-13T21:47:39.959Z,101564.51
2022-10-13T21:50:09.805Z,101563.92
2022-10-13T21:52:39.430Z,101570.17
2022-10-13T21:55:11.146Z,101568.03
2022-10-13T21:57:41.349Z,101561.09
2022-10-13T22:00:12.231Z,101564.31
2022-10-13T22:02:41.683Z,101560.06
2022-10-13T22:05:12.920Z,101546.61
2022-10-13T22:07:42.197Z,101545.32
2022-10-13T22:10:11.578Z,101544.59
2022-10-13T22:12:41.314Z,101549.72
2022-10-13T22:15:11.911Z,101541.38
2022-10-13T22:17:41.426Z,101538.14
2022-10-13T22:20:11.010Z,101544.62
2022-10-13T22:22:41.008Z,101537.39
2022-10-13T22:25:11.079Z,101532.81
2022-10-13T22:27:40.561Z,101540.36
2022-10-13T22:30:10.773Z,101530.65
2022-10-13T22:32:40.191Z,101525.52
2022-10-13T22:35:10.042Z,101525.26
2022-10-13T22:37:39.555Z,101516.83
2022-10-13T22:40:09.789Z,101524.83
2022-10-13T22:42:39.163Z,101519.36
2022-10-13T22:45:10.753Z,101521.80
2022-10-13T22:47:40.123Z,101524.51
2022-10-13T22:50:10.062Z,101521.58
2022-10-13T22:52:39.538Z,101526.19
2022-10-13T22:55:10.592Z,101520.88
2022-10-13T22:57:40.535Z,101517.83
2022-10-13T23:00:10.890Z,101512.15
2022-10-13T23:02:42.121Z,101514.72
2022-10-13T23:05:13.779Z,101505.77
2022-10-13T23:07:43.332Z,101497.14
2022-10-13T23:10:12.735Z,101492.78
2022-10-13T23:12:43.758Z,101493.03
2022-10-13T23:15:13.137Z,101484.95
2022-10-13T23:17:42.587Z,101480.39
2022-10-13T23:20:12.188Z,101483.95
2022-10-13T23:22:41.853Z,101491.30
2022-10-13T23:25:11.406Z,101481.38
2022-10-13T23:27:42.245Z,101481.24
2022-10-13T23:30:13.118Z,101487.19
2022-10-13T23:32:42.498Z,101489.40
2022-10-13T23:35:11.808Z,101489.41
2022-10-13T23:37:41.382Z,101496.16
2022-10-13T23:40:11.692Z,101498.91
2022-10-13T23:42:41.188Z,101497.06
2022-10-13T23:45:11.204Z,101498.95
2022-10-13T23:47:40.504Z,101490.87
2022-10-13T23:50:10.479Z,101487.68
2022-10-13T23:52:40.104Z,101493.88
2022-10-13T23:55:10.268Z,101493.63
2022-10-13T23:57:39.535Z,101485.03
